Time;durP1;ratioP1;P1;durP2;ratioP2;P2;SDS_P1;SDS_P2;PMS_P1;PMS_P2;Temp;Humidity;BMP_temperature;BMP_pressure;BME280_temperature;BME280_humidity;BME280_pressure;Samples;Min_cycle;Max_cycle;Signal;HPM_P1;HPM_P2
2021/07/08 00:00:38;;;;;;;1308.45;950.05;;;;;;;;;;5247587;27;20372;-85
2021/07/08 00:03:07;;;;;;;1062.72;868.22;;;;;;;;;;5246748;27;20041;-84
2021/07/08 00:05:38;;;;;;;958.87;836.20;;;;;;;;;;5247467;27;20405;-85
2021/07/08 00:08:07;;;;;;;1214.78;918.28;;;;;;;;;;5242825;27;20034;-85
2021/07/08 00:10:38;;;;;;;1289.78;933.97;;;;;;;;;;5243431;27;20022;-85
2021/07/08 00:13:07;;;;;;;1235.00;919.80;;;;;;;;;;5246454;27;20022;-85
2021/07/08 00:15:41;;;;;;;1054.65;868.13;;;;;;;;;;5244957;27;20029;-84
2021/07/08 00:18:11;;;;;;;1320.32;934.58;;;;;;;;;;5244205;27;20022;-85
2021/07/08 00:20:40;;;;;;;1045.35;868.22;;;;;;;;;;5245332;27;20026;-85
2021/07/08 00:23:09;;;;;;;1352.35;950.58;;;;;;;;;;5245319;27;20057;-84
2021/07/08 00:25:37;;;;;;;1180.75;888.03;;;;;;;;;;5242975;27;20077;-85
2021/07/08 00:28:08;;;;;;;1298.18;941.20;;;;;;;;;;5244798;27;20500;-84
2021/07/08 00:30:37;;;;;;;966.40;862.28;;;;;;;;;;5236152;27;20032;-85
2021/07/08 00:33:06;;;;;;;1479.65;984.72;;;;;;;;;;5239710;27;20029;-85
2021/07/08 00:35:36;;;;;;;1007.60;871.15;;;;;;;;;;5246958;27;20067;-85
2021/07/08 00:38:04;;;;;;;1262.78;933.55;;;;;;;;;;5251006;27;20411;-84
2021/07/08 00:40:34;;;;;;;1260.80;922.05;;;;;;;;;;5226252;27;20506;-84
2021/07/08 00:43:03;;;;;;;973.40;852.25;;;;;;;;;;5241769;27;20361;-84
2021/07/08 00:45:31;;;;;;;1257.38;918.25;;;;;;;;;;5241795;27;20023;-85
2021/07/08 00:48:01;;;;;;;1103.57;883.95;;;;;;;;;;5247398;27;20286;-85
2021/07/08 00:50:32;;;;;;;1392.93;940.65;;;;;;;;;;5240971;27;20037;-85
2021/07/08 00:53:05;;;;;;;1468.15;962.78;;;;;;;;;;5241231;27;20022;-85
2021/07/08 00:55:34;;;;;;;1033.38;857.20;;;;;;;;;;5245160;27;20459;-84
2021/07/08 00:58:04;;;;;;;1395.10;956.03;;;;;;;;;;5246078;27;20045;-85
2021/07/08 01:00:34;;;;;;;1493.38;962.55;;;;;;;;;;5222399;27;20034;-85
2021/07/08 01:03:08;;;;;;;1177.50;900.83;;;;;;;;;;5239372;27;20410;-85
2021/07/08 01:05:38;;;;;;;1062.43;882.42;;;;;;;;;;5241428;27;20018;-85
2021/07/08 01:08:07;;;;;;;1248.03;927.03;;;;;;;;;;5242454;27;20041;-85
2021/07/08 01:10:35;;;;;;;1136.68;900.70;;;;;;;;;;5244268;27;20076;-85
2021/07/08 01:13:04;;;;;;;1163.63;899.15;;;;;;;;;;5241985;27;20391;-85
2021/07/08 01:15:33;;;;;;;1587.10;984.85;;;;;;;;;;5240774;27;20081;-85
2021/07/08 01:18:02;;;;;;;1348.13;950.92;;;;;;;;;;5243476;27;20014;-85
2021/07/08 01:20:32;;;;;;;1140.93;907.65;;;;;;;;;;5241525;27;20069;-85
2021/07/08 01:23:01;;;;;;;1040.43;845.42;;;;;;;;;;5243094;27;20018;-84
2021/07/08 01:25:41;;;;;;;1281.07;916.67;;;;;;;;;;5241374;27;20512;-85
2021/07/08 01:28:11;;;;;;;1033.90;858.78;;;;;;;;;;5241733;27;20041;-85
2021/07/08 01:30:39;;;;;;;962.88;845.42;;;;;;;;;;5237027;27;20051;-84
2021/07/08 01:33:08;;;;;;;1078.95;864.60;;;;;;;;;;5241618;27;20018;-84
2021/07/08 01:35:37;;;;;;;1181.15;891.92;;;;;;;;;;5221253;27;20487;-85
2021/07/08 01:38:05;;;;;;;1097.28;869.28;;;;;;;;;;5240023;27;20015;-84
2021/07/08 01:40:35;;;;;;;1310.78;903.53;;;;;;;;;;5241162;27;20017;-85
2021/07/08 01:43:04;;;;;;;985.65;843.67;;;;;;;;;;5245238;27;20048;-85
2021/07/08 01:45:32;;;;;;;927.45;825.80;;;;;;;;;;5239361;27;20022;-85
2021/07/08 01:48:01;;;;;;;1301.72;946.05;;;;;;;;;;5242185;27;20044;-85
2021/07/08 01:50:30;;;;;;;1329.82;928.28;;;;;;;;;;5241944;27;20044;-85
2021/07/08 01:52:58;;;;;;;1323.95;940.20;;;;;;;;;;5241182;27;20634;-84
2021/07/08 01:55:27;;;;;;;1257.03;929.65;;;;;;;;;;5221028;27;20098;-84
2021/07/08 01:57:57;;;;;;;1241.72;929.50;;;;;;;;;;5243427;27;20090;-84
2021/07/08 02:00:25;;;;;;;1222.10;917.25;;;;;;;;;;5245224;27;20029;-84
2021/07/08 02:02:56;;;;;;;1036.85;858.15;;;;;;;;;;5245870;27;20053;-84
2021/07/08 02:05:25;;;;;;;1306.63;924.75;;;;;;;;;;5241989;27;20030;-84
2021/07/08 02:07:54;;;;;;;1129.70;847.25;;;;;;;;;;5241027;27;20022;-85
2021/07/08 02:10:23;;;;;;;985.53;818.75;;;;;;;;;;5243597;27;20016;-85
2021/07/08 02:12:51;;;;;;;1532.78;983.67;;;;;;;;;;5243858;27;20026;-85
2021/07/08 02:15:21;;;;;;;1331.40;950.03;;;;;;;;;;5243497;27;20040;-84
2021/07/08 02:17:50;;;;;;;1536.10;988.05;;;;;;;;;;5250244;27;20022;-84
2021/07/08 02:20:19;;;;;;;1427.68;967.75;;;;;;;;;;5245731;27;20515;-85
2021/07/08 02:22:47;;;;;;;1494.18;984.22;;;;;;;;;;5240986;27;20026;-84
2021/07/08 02:25:17;;;;;;;1302.45;932.47;;;;;;;;;;5242714;27;20028;-85
2021/07/08 02:27:46;;;;;;;1215.60;903.63;;;;;;;;;;5240713;27;20030;-83
2021/07/08 02:30:19;;;;;;;1054.85;848.15;;;;;;;;;;5244630;27;20018;-85
2021/07/08 02:32:51;;;;;;;1325.72;914.50;;;;;;;;;;5244202;27;20022;-85
2021/07/08 02:35:21;;;;;;;1391.13;912.37;;;;;;;;;;5246349;27;20361;-85
2021/07/08 02:37:51;;;;;;;1369.18;907.58;;;;;;;;;;5248958;27;20081;-85
2021/07/08 02:40:21;;;;;;;1049.47;868.50;;;;;;;;;;5242792;27;20011;-84
2021/07/08 02:42:51;;;;;;;1103.22;837.33;;;;;;;;;;5242597;27;20077;-86
2021/07/08 02:45:21;;;;;;;1246.65;884.13;;;;;;;;;;5245072;27;20415;-84
2021/07/08 02:47:50;;;;;;;1375.85;910.80;;;;;;;;;;5245720;27;20064;-85
2021/07/08 02:50:20;;;;;;;1279.88;883.92;;;;;;;;;;5242746;27;20319;-84
2021/07/08 02:52:49;;;;;;;1087.07;840.38;;;;;;;;;;5241230;27;20188;-85
2021/07/08 02:55:19;;;;;;;1288.03;919.20;;;;;;;;;;5244353;27;20420;-85
2021/07/08 02:57:47;;;;;;;1355.68;940.25;;;;;;;;;;5241728;27;20033;-84
2021/07/08 03:00:17;;;;;;;1332.30;957.62;;;;;;;;;;5241737;27;20017;-85
2021/07/08 03:02:46;;;;;;;1472.63;998.40;;;;;;;;;;5241300;27;20444;-85
2021/07/08 03:05:16;;;;;;;1571.97;999.83;;;;;;;;;;5241728;27;20464;-84
2021/07/08 03:07:44;;;;;;;1526.88;987.50;;;;;;;;;;5242376;27;20103;-85
2021/07/08 08:52:42;;;;;;;1511.15;972.92;;;;;;;;;;5241830;27;20022;-84
2021/07/08 08:55:11;;;;;;;1250.93;907.65;;;;;;;;;;5270855;27;20026;-84
2021/07/08 08:57:40;;;;;;;1287.03;915.65;;;;;;;;;;5271274;27;20047;-84
2021/07/08 09:00:30;;;;;;;1502.50;970.33;;;;;;;;;;5260585;27;20418;-84
2021/07/08 09:03:00;;;;;;;1186.15;878.05;;;;;;;;;;5206621;27;20059;-85
2021/07/08 09:05:28;;;;;;;1466.10;969.28;;;;;;;;;;5262428;27;20396;-84
2021/07/08 09:08:26;;;;;;;1569.75;984.40;;;;;;;;;;5258591;27;20083;-84
2021/07/08 09:11:04;;;;;;;1459.38;964.15;;;;;;;;;;5238574;27;20167;-84
2021/07/08 09:13:42;;;;;;;1532.35;966.13;;;;;;;;;;5242846;27;20390;-84
2021/07/08 09:16:18;;;;;;;1452.43;922.30;;;;;;;;;;5269349;27;20018;-83
2021/07/08 09:19:00;;;;;;;1423.85;912.35;;;;;;;;;;5258001;27;20055;-84
2021/07/08 09:21:30;;;;;;;1453.75;905.78;;;;;;;;;;5268725;27;20084;-84
2021/07/08 09:24:17;;;;;;;1628.72;931.53;;;;;;;;;;5249011;27;20033;-84
2021/07/08 09:26:54;;;;;;;1490.57;874.55;;;;;;;;;;5253706;27;20715;-84
2021/07/08 09:29:24;;;;;;;1462.10;838.47;;;;;;;;;;5261702;27;20087;-84
2021/07/08 09:32:01;;;;;;;1524.70;895.75;;;;;;;;;;5267641;27;20088;-86
2021/07/08 09:34:31;;;;;;;1237.35;807.33;;;;;;;;;;5245004;27;20032;-86
2021/07/08 09:37:06;;;;;;;1164.85;796.67;;;;;;;;;;5250484;27;20364;-85
2021/07/08 09:39:42;;;;;;;1178.43;822.05;;;;;;;;;;5251975;27;20006;-85
2021/07/08 09:42:12;;;;;;;1406.90;918.05;;;;;;;;;;5266183;27;20041;-86
2021/07/08 09:44:41;;;;;;;1175.22;874.33;;;;;;;;;;5269484;27;20029;-86
2021/07/08 09:47:19;;;;;;;1661.85;999.90;;;;;;;;;;5271848;27;20028;-85
2021/07/08 09:49:48;;;;;;;1555.43;964.20;;;;;;;;;;5264745;27;20079;-84
2021/07/08 09:52:17;;;;;;;1483.43;958.65;;;;;;;;;;5263186;27;20100;-84
2021/07/08 10:00:38;;;;;;;1493.82;908.00;;;;;;;;;;5268918;27;20010;-84
2021/07/08 10:03:07;;;;;;;1431.00;889.10;;;;;;;;;;5246851;27;20501;-85
2021/07/08 10:05:37;;;;;;;1596.45;906.03;;;;;;;;;;5268342;27;20063;-84
2021/07/08 10:08:07;;;;;;;1474.15;846.40;;;;;;;;;;5269640;27;20037;-85
2021/07/08 10:10:37;;;;;;;1069.22;783.67;;;;;;;;;;5272371;27;20361;-84
2021/07/08 10:13:06;;;;;;;1716.07;895.10;;;;;;;;;;5268486;27;20065;-85
2021/07/08 10:15:38;;;;;;;1562.40;892.85;;;;;;;;;;5271161;27;20020;-84
2021/07/08 10:18:07;;;;;;;1583.57;939.50;;;;;;;;;;5270599;27;20518;-85
2021/07/08 10:20:36;;;;;;;1814.45;969.53;;;;;;;;;;5271908;27;20041;-84
2021/07/08 10:23:05;;;;;;;1481.38;896.08;;;;;;;;;;5269174;27;20317;-85
2021/07/08 10:25:34;;;;;;;1635.88;892.72;;;;;;;;;;5269642;27;20036;-84
2021/07/08 10:28:03;;;;;;;1573.10;900.15;;;;;;;;;;5269840;27;20405;-83
2021/07/08 10:30:32;;;;;;;1861.60;964.40;;;;;;;;;;5270703;27;20051;-84
2021/07/08 10:33:04;;;;;;;1998.38;984.70;;;;;;;;;;5247419;27;20384;-84
2021/07/08 10:35:44;;;;;;;1888.13;967.83;;;;;;;;;;5249809;27;20054;-84
2021/07/08 10:38:31;;;;;;;993.80;777.03;;;;;;;;;;5271942;27;20442;-84
2021/07/08 10:41:19;;;;;;;1577.07;909.88;;;;;;;;;;5269155;27;20049;-83
2021/07/08 10:43:48;;;;;;;1814.97;959.37;;;;;;;;;;5268374;27;20045;-84
2021/07/08 10:46:37;;;;;;;1507.18;912.75;;;;;;;;;;5266914;27;20055;-84
2021/07/08 10:49:13;;;;;;;1098.68;822.30;;;;;;;;;;5270968;27;20408;-84
2021/07/08 10:51:45;;;;;;;1445.35;890.05;;;;;;;;;;5272301;27;20036;-84
2021/07/08 10:54:30;;;;;;;1800.28;973.03;;;;;;;;;;5272916;27;20029;-84
2021/07/08 10:57:02;;;;;;;1667.68;941.35;;;;;;;;;;5274094;27;20111;-85
2021/07/08 10:59:44;;;;;;;1999.90;980.03;;;;;;;;;;5250139;27;20423;-85
2021/07/08 11:02:43;;;;;;;1999.90;981.08;;;;;;;;;;5252087;27;20426;-85
2021/07/08 11:05:12;;;;;;;1983.57;990.45;;;;;;;;;;5270905;27;20412;-84
2021/07/08 11:07:49;;;;;;;1999.90;999.90;;;;;;;;;;5273305;27;20021;-84
2021/07/08 11:10:32;;;;;;;1863.43;983.58;;;;;;;;;;5269479;27;20475;-85
2021/07/08 11:13:20;;;;;;;1970.07;987.03;;;;;;;;;;5268632;27;20040;-84
2021/07/08 11:15:53;;;;;;;1999.90;992.65;;;;;;;;;;5256036;27;20557;-84
2021/07/08 11:18:29;;;;;;;1935.72;972.83;;;;;;;;;;5273185;27;20085;-84
2021/07/08 11:20:59;;;;;;;1999.90;990.05;;;;;;;;;;5273037;27;20352;-84
2021/07/08 11:23:38;;;;;;;1523.10;871.53;;;;;;;;;;5270502;27;20050;-85
2021/07/08 11:26:09;;;;;;;1623.45;922.33;;;;;;;;;;5273432;27;20397;-84
2021/07/08 11:28:41;;;;;;;1869.60;931.75;;;;;;;;;;5269953;27;20512;-85
2021/07/08 11:31:10;;;;;;;1921.12;945.58;;;;;;;;;;5273217;27;20063;-84
2021/07/08 11:33:40;;;;;;;1999.90;999.90;;;;;;;;;;5267384;27;20009;-85
2021/07/08 11:36:19;;;;;;;1999.90;999.90;;;;;;;;;;5273182;27;20093;-85
2021/07/08 11:38:49;;;;;;;1999.90;997.97;;;;;;;;;;5251426;27;20188;-85
2021/07/08 11:41:23;;;;;;;1857.35;945.83;;;;;;;;;;5262167;27;20057;-85
2021/07/08 11:43:52;;;;;;;1999.90;984.50;;;;;;;;;;5264114;27;20397;-84
2021/07/08 11:46:21;;;;;;;1999.90;999.90;;;;;;;;;;5264544;27;20036;-85
2021/07/08 11:48:49;;;;;;;1829.95;959.20;;;;;;;;;;5269219;27;20278;-85
2021/07/08 11:51:19;;;;;;;1875.55;959.20;;;;;;;;;;5267598;27;20042;-85
2021/07/08 11:53:49;;;;;;;1999.90;995.70;;;;;;;;;;5265585;27;20061;-85
2021/07/08 11:56:18;;;;;;;1999.90;992.58;;;;;;;;;;5271494;27;20053;-84
2021/07/08 11:58:47;;;;;;;1998.80;974.35;;;;;;;;;;5270049;27;20444;-85
2021/07/08 12:01:19;;;;;;;1999.90;999.90;;;;;;;;;;5265343;27;20014;-85
2021/07/08 12:03:51;;;;;;;1999.90;992.55;;;;;;;;;;5265039;27;20022;-85
2021/07/08 12:06:23;;;;;;;1975.65;968.20;;;;;;;;;;5271642;27;20042;-85
2021/07/08 12:09:00;;;;;;;1999.90;999.90;;;;;;;;;;5265670;27;20041;-86
2021/07/08 12:11:48;;;;;;;1761.07;935.88;;;;;;;;;;5264647;27;20050;-85
2021/07/08 12:14:20;;;;;;;1987.57;979.65;;;;;;;;;;5264764;27;20471;-85
2021/07/08 12:16:49;;;;;;;1764.97;934.37;;;;;;;;;;5267541;27;20014;-85
2021/07/08 12:19:18;;;;;;;1999.90;999.90;;;;;;;;;;5273079;27;20040;-85
2021/07/08 12:21:47;;;;;;;1958.70;964.08;;;;;;;;;;5263110;27;20017;-85
2021/07/08 12:24:23;;;;;;;1999.90;999.90;;;;;;;;;;5264773;27;20405;-85
2021/07/08 12:26:55;;;;;;;1837.37;960.00;;;;;;;;;;5262350;27;20286;-85
2021/07/08 12:29:27;;;;;;;1978.00;973.85;;;;;;;;;;5266531;27;20006;-86
2021/07/08 12:31:56;;;;;;;1659.70;897.12;;;;;;;;;;5268732;27;20666;-86
2021/07/08 12:34:26;;;;;;;1894.30;955.80;;;;;;;;;;5269775;27;20178;-85
2021/07/08 12:36:55;;;;;;;1999.90;999.90;;;;;;;;;;5267355;27;20698;-85
2021/07/08 12:39:26;;;;;;;1607.25;945.50;;;;;;;;;;5261659;27;20355;-85
2021/07/08 12:41:55;;;;;;;1964.05;991.15;;;;;;;;;;5265299;27;20090;-84
2021/07/08 12:44:23;;;;;;;1999.90;998.35;;;;;;;;;;5264648;27;20452;-85
2021/07/08 12:46:55;;;;;;;1773.32;942.30;;;;;;;;;;5243714;27;20452;-85
2021/07/08 12:49:24;;;;;;;1755.50;946.15;;;;;;;;;;5268998;27;20013;-85
2021/07/08 12:51:53;;;;;;;1999.90;999.10;;;;;;;;;;5268448;27;20085;-85
2021/07/08 12:54:24;;;;;;;1999.90;995.40;;;;;;;;;;5265549;27;20035;-85
2021/07/08 12:57:25;;;;;;;1755.55;906.95;;;;;;;;;;5269192;27;20056;-84
2021/07/08 12:59:58;;;;;;;1653.82;887.90;;;;;;;;;;5209608;27;20014;-85
2021/07/08 13:02:31;;;;;;;1999.90;999.90;;;;;;;;;;5268032;27;20029;-85
2021/07/08 13:05:06;;;;;;;1746.18;931.42;;;;;;;;;;5270617;27;20025;-85
2021/07/08 13:07:36;;;;;;;1590.10;924.10;;;;;;;;;;5250234;27;20546;-85
2021/07/08 13:10:08;;;;;;;1778.57;945.72;;;;;;;;;;5271133;27;20430;-85
2021/07/08 13:12:38;;;;;;;1999.90;994.35;;;;;;;;;;5250333;27;20062;-84
2021/07/08 13:15:21;;;;;;;1774.70;924.22;;;;;;;;;;5269592;27;20034;-85
2021/07/08 13:18:01;;;;;;;1999.90;988.42;;;;;;;;;;5269388;27;20065;-85
2021/07/08 13:20:30;;;;;;;1999.90;999.90;;;;;;;;;;5252522;27;20018;-85
2021/07/08 13:23:10;;;;;;;1900.07;979.60;;;;;;;;;;5268704;27;20131;-85
2021/07/08 13:25:39;;;;;;;1999.90;995.65;;;;;;;;;;5270455;27;20058;-85
2021/07/08 13:28:22;;;;;;;1995.47;975.08;;;;;;;;;;5269430;27;20076;-86
2021/07/08 13:30:58;;;;;;;1999.90;989.28;;;;;;;;;;5267989;27;20002;-85
2021/07/08 13:33:34;;;;;;;1999.90;973.90;;;;;;;;;;5264642;27;20081;-85
2021/07/08 13:36:07;;;;;;;1857.07;936.03;;;;;;;;;;5264148;27;20006;-86
2021/07/08 13:38:36;;;;;;;1999.90;995.93;;;;;;;;;;5264484;27;20081;-85
2021/07/08 13:41:11;;;;;;;1898.40;956.65;;;;;;;;;;5245057;27;20051;-85
2021/07/08 13:43:42;;;;;;;1999.90;995.17;;;;;;;;;;5263654;27;20028;-85
2021/07/08 13:46:13;;;;;;;1837.10;951.65;;;;;;;;;;5264134;27;20042;-85
2021/07/08 13:48:43;;;;;;;1846.95;951.20;;;;;;;;;;5264137;27;20032;-85
2021/07/08 13:51:12;;;;;;;1999.90;997.63;;;;;;;;;;5264599;27;20022;-84
2021/07/08 13:53:40;;;;;;;1933.15;959.50;;;;;;;;;;5263063;27;20097;-85
2021/07/08 13:56:16;;;;;;;1999.90;985.42;;;;;;;;;;5263076;27;20120;-84
2021/07/08 13:58:48;;;;;;;1999.90;996.37;;;;;;;;;;5263947;27;20659;-85
2021/07/08 14:01:18;;;;;;;1855.15;965.35;;;;;;;;;;5265002;27;20100;-85
2021/07/08 14:03:47;;;;;;;1976.43;983.92;;;;;;;;;;5247523;27;20404;-86
2021/07/08 14:06:16;;;;;;;1981.20;960.15;;;;;;;;;;5269978;27;20055;-85
2021/07/08 14:08:45;;;;;;;1799.00;946.53;;;;;;;;;;5268761;27;20080;-85
2021/07/08 14:11:15;;;;;;;1999.90;999.90;;;;;;;;;;5264358;27;20590;-85
2021/07/08 14:13:43;;;;;;;1922.88;979.35;;;;;;;;;;5264972;27;20065;-84
2021/07/08 14:16:12;;;;;;;1999.90;999.90;;;;;;;;;;5263793;27;20049;-85
2021/07/08 14:18:42;;;;;;;1993.07;962.80;;;;;;;;;;5245219;27;20115;-84
2021/07/08 14:21:11;;;;;;;1999.90;987.17;;;;;;;;;;5263944;27;20078;-85
2021/07/08 14:23:39;;;;;;;1978.95;986.63;;;;;;;;;;5264086;27;20053;-86
2021/07/08 14:26:08;;;;;;;1431.25;851.55;;;;;;;;;;5265072;27;20061;-85
2021/07/08 14:28:37;;;;;;;1998.95;988.55;;;;;;;;;;5264121;27;20470;-86
2021/07/08 14:31:05;;;;;;;1908.95;947.45;;;;;;;;;;5265260;27;20041;-85
2021/07/08 14:33:35;;;;;;;1946.07;955.38;;;;;;;;;;5264093;27;20081;-84
2021/07/08 14:36:06;;;;;;;1975.90;968.88;;;;;;;;;;5263588;27;20018;-84
2021/07/08 14:38:36;;;;;;;1548.00;906.65;;;;;;;;;;5265085;27;20465;-85
2021/07/08 14:41:06;;;;;;;1947.30;950.67;;;;;;;;;;5262063;27;20117;-83
2021/07/08 14:43:43;;;;;;;1712.82;919.03;;;;;;;;;;5245705;27;20073;-85
2021/07/08 14:46:12;;;;;;;1783.82;923.85;;;;;;;;;;5263853;27;20069;-85
2021/07/08 14:48:47;;;;;;;1762.07;945.15;;;;;;;;;;5264582;27;20116;-85
2021/07/08 14:51:16;;;;;;;1999.90;987.95;;;;;;;;;;5245699;27;20014;-85
2021/07/08 14:53:45;;;;;;;1736.50;925.40;;;;;;;;;;5263942;27;20382;-86
2021/07/08 14:56:13;;;;;;;1992.18;982.55;;;;;;;;;;5243624;27;20205;-85
2021/07/08 14:58:42;;;;;;;1999.90;988.97;;;;;;;;;;5263659;27;20634;-85
2021/07/08 15:01:12;;;;;;;1907.05;960.53;;;;;;;;;;5264858;27;20431;-84
2021/07/08 15:03:41;;;;;;;1701.93;917.28;;;;;;;;;;5270771;27;20399;-85
2021/07/08 15:06:11;;;;;;;1642.07;911.42;;;;;;;;;;5250449;27;20076;-85
2021/07/08 15:08:40;;;;;;;1890.80;970.15;;;;;;;;;;5250850;27;20028;-84
2021/07/08 15:11:08;;;;;;;1720.32;919.03;;;;;;;;;;5270755;27;20766;-85
2021/07/08 15:13:37;;;;;;;1800.47;947.60;;;;;;;;;;5270869;27;20561;-84
2021/07/08 15:16:09;;;;;;;1723.32;915.53;;;;;;;;;;5272982;27;20018;-85
2021/07/08 15:18:38;;;;;;;1918.43;959.40;;;;;;;;;;5267920;27;20037;-85
2021/07/08 15:21:08;;;;;;;1813.28;947.17;;;;;;;;;;5270144;27;20017;-85
2021/07/08 15:23:38;;;;;;;1801.00;942.80;;;;;;;;;;5249642;27;20387;-85
2021/07/08 15:26:07;;;;;;;1882.30;965.25;;;;;;;;;;5248993;27;20045;-85
2021/07/08 15:28:35;;;;;;;1810.82;943.05;;;;;;;;;;5247751;27;20078;-85
2021/07/08 15:31:04;;;;;;;1917.95;967.30;;;;;;;;;;5268977;27;20021;-84
2021/07/08 15:33:33;;;;;;;1260.97;823.20;;;;;;;;;;5267395;27;20025;-85
2021/07/08 15:36:02;;;;;;;1829.65;964.47;;;;;;;;;;5270742;27;20024;-85
2021/07/08 15:38:31;;;;;;;1715.95;938.15;;;;;;;;;;5268453;27;20032;-85
2021/07/08 15:40:59;;;;;;;1426.10;867.20;;;;;;;;;;5269918;27;20071;-84
2021/07/08 15:43:28;;;;;;;1599.13;925.80;;;;;;;;;;5270639;27;20018;-84
2021/07/08 15:45:56;;;;;;;1773.03;921.53;;;;;;;;;;5272140;27;20048;-85
2021/07/08 15:48:27;;;;;;;1834.18;932.10;;;;;;;;;;5268435;27;20429;-85
2021/07/08 15:50:56;;;;;;;1837.13;942.20;;;;;;;;;;5269631;27;20055;-85
2021/07/08 15:53:26;;;;;;;1612.70;896.33;;;;;;;;;;5268995;27;20030;-85
2021/07/08 15:55:54;;;;;;;1912.57;946.17;;;;;;;;;;5267649;27;20388;-86
2021/07/08 15:58:23;;;;;;;1659.45;906.90;;;;;;;;;;5269160;27;20029;-84
2021/07/08 16:00:52;;;;;;;1956.97;975.40;;;;;;;;;;5250874;27;20069;-84
2021/07/08 16:03:21;;;;;;;1999.90;985.33;;;;;;;;;;5270196;27;20866;-85
2021/07/08 16:05:49;;;;;;;1771.22;944.53;;;;;;;;;;5268125;27;20494;-85
2021/07/08 16:08:18;;;;;;;1832.18;937.72;;;;;;;;;;5250541;27;20018;-85
2021/07/08 16:10:49;;;;;;;1800.28;960.10;;;;;;;;;;5271762;27;20075;-84
2021/07/08 16:13:17;;;;;;;1853.88;951.15;;;;;;;;;;5266679;27;20458;-85
2021/07/08 16:15:46;;;;;;;1999.90;985.78;;;;;;;;;;5271310;27;20052;-83
2021/07/08 16:18:17;;;;;;;1999.90;999.72;;;;;;;;;;5269063;27;20056;-85
2021/07/08 16:20:45;;;;;;;1784.65;962.45;;;;;;;;;;5273132;27;20439;-84
2021/07/08 16:23:14;;;;;;;1506.20;860.50;;;;;;;;;;5249498;27;20726;-85
2021/07/08 16:25:44;;;;;;;1557.00;893.40;;;;;;;;;;5249445;27;20435;-84
2021/07/08 16:28:12;;;;;;;1820.93;951.22;;;;;;;;;;5247912;27;20401;-85
2021/07/08 16:30:41;;;;;;;1618.18;896.30;;;;;;;;;;5251228;27;20447;-84
2021/07/08 16:33:10;;;;;;;1726.50;942.88;;;;;;;;;;5271152;27;20057;-84
2021/07/08 16:35:39;;;;;;;1734.97;935.53;;;;;;;;;;5268050;27;20014;-85
2021/07/08 16:38:10;;;;;;;1621.65;911.58;;;;;;;;;;5267569;27;20017;-85
2021/07/08 16:40:39;;;;;;;1551.30;911.83;;;;;;;;;;5269372;27;20033;-84
2021/07/08 16:43:07;;;;;;;1626.82;927.05;;;;;;;;;;5267837;27;20379;-84
2021/07/08 16:45:37;;;;;;;1804.00;950.40;;;;;;;;;;5270062;27;20064;-85
2021/07/08 16:48:07;;;;;;;1792.65;958.90;;;;;;;;;;5265562;27;20021;-83
2021/07/08 16:50:36;;;;;;;1799.75;952.85;;;;;;;;;;5266879;27;20039;-86
2021/07/08 16:53:08;;;;;;;1723.15;934.10;;;;;;;;;;5268734;27;21132;-85
2021/07/08 16:55:37;;;;;;;1525.35;907.85;;;;;;;;;;5250927;27;20105;-86
2021/07/08 16:58:06;;;;;;;1476.55;878.30;;;;;;;;;;5270048;27;20014;-85
2021/07/08 17:00:37;;;;;;;1631.53;919.13;;;;;;;;;;5267073;27;20048;-85
2021/07/08 17:03:07;;;;;;;1600.03;890.85;;;;;;;;;;5245662;27;20052;-84
2021/07/08 17:05:36;;;;;;;1499.47;881.08;;;;;;;;;;5262883;27;20032;-85
2021/07/08 17:08:05;;;;;;;1667.75;929.97;;;;;;;;;;5262738;27;20018;-84
2021/07/08 17:10:36;;;;;;;1593.55;917.05;;;;;;;;;;5260637;27;20009;-84
2021/07/08 17:13:05;;;;;;;1686.53;925.15;;;;;;;;;;5261234;27;20033;-85
2021/07/08 17:15:35;;;;;;;1537.78;881.53;;;;;;;;;;5260543;27;20062;-84
2021/07/08 17:18:04;;;;;;;1661.25;929.20;;;;;;;;;;5260435;27;20030;-85
2021/07/08 17:20:33;;;;;;;1725.13;949.85;;;;;;;;;;5240653;27;20419;-85
2021/07/08 17:23:02;;;;;;;1538.18;914.15;;;;;;;;;;5260596;27;20011;-86
2021/07/08 17:25:31;;;;;;;1664.63;933.15;;;;;;;;;;5263424;27;20148;-84
2021/07/08 17:28:00;;;;;;;1654.22;926.20;;;;;;;;;;5260615;27;20068;-85
2021/07/08 17:30:45;;;;;;;1625.43;902.22;;;;;;;;;;5241183;27;20041;-85
2021/07/08 17:33:15;;;;;;;1560.55;913.67;;;;;;;;;;5264159;27;20025;-85
2021/07/08 17:35:43;;;;;;;1527.15;893.08;;;;;;;;;;5242820;27;20014;-85
2021/07/08 17:38:12;;;;;;;1622.13;910.97;;;;;;;;;;5262645;27;20041;-85
2021/07/08 17:40:41;;;;;;;1822.25;948.40;;;;;;;;;;5261183;27;20084;-83
2021/07/08 17:43:09;;;;;;;1869.53;943.78;;;;;;;;;;5243810;27;20561;-84
2021/07/08 17:45:40;;;;;;;1624.25;920.45;;;;;;;;;;5262295;27;20024;-84
2021/07/08 17:48:10;;;;;;;1357.57;855.12;;;;;;;;;;5263748;27;20064;-84
2021/07/08 17:50:38;;;;;;;1820.50;936.72;;;;;;;;;;5261575;27;20023;-85
2021/07/08 17:53:07;;;;;;;1896.57;949.45;;;;;;;;;;5262044;27;20055;-84
2021/07/08 17:55:38;;;;;;;1569.47;869.80;;;;;;;;;;5261875;27;20053;-85
2021/07/08 17:58:07;;;;;;;1891.53;956.72;;;;;;;;;;5263433;27;20063;-85
2021/07/08 18:00:36;;;;;;;1436.20;861.67;;;;;;;;;;5260689;27;20090;-84
2021/07/08 18:03:05;;;;;;;1648.72;906.17;;;;;;;;;;5261010;27;20049;-84
2021/07/08 18:05:33;;;;;;;1741.80;929.22;;;;;;;;;;5260477;27;20068;-86
2021/07/08 18:08:02;;;;;;;1608.62;894.55;;;;;;;;;;5261389;27;20398;-84
2021/07/08 18:10:31;;;;;;;1563.05;888.78;;;;;;;;;;5260556;27;20137;-85
2021/07/08 18:13:00;;;;;;;1682.65;913.53;;;;;;;;;;5261902;27;20042;-85
2021/07/08 18:15:29;;;;;;;1461.63;854.15;;;;;;;;;;5263446;27;20056;-85
2021/07/08 18:17:58;;;;;;;1369.72;841.25;;;;;;;;;;5263069;27;20058;-85
2021/07/08 18:20:26;;;;;;;1578.47;892.97;;;;;;;;;;5261886;27;20014;-84
2021/07/08 18:22:55;;;;;;;1657.70;919.78;;;;;;;;;;5261446;27;20092;-84
2021/07/08 18:25:24;;;;;;;1571.95;899.58;;;;;;;;;;5262196;27;20430;-85
2021/07/08 18:27:56;;;;;;;1206.47;823.62;;;;;;;;;;5262257;27;20049;-85
2021/07/08 18:30:27;;;;;;;1202.38;798.88;;;;;;;;;;5262853;27;20515;-85
2021/07/08 18:32:56;;;;;;;1519.22;889.15;;;;;;;;;;5242710;27;20049;-84
2021/07/08 18:35:31;;;;;;;1195.53;798.20;;;;;;;;;;5261630;27;20042;-85
2021/07/08 18:38:00;;;;;;;1301.88;839.38;;;;;;;;;;5259472;27;20408;-84
2021/07/08 18:40:29;;;;;;;1474.30;886.45;;;;;;;;;;5260245;27;20127;-85
2021/07/08 18:42:58;;;;;;;1508.55;873.42;;;;;;;;;;5263126;27;20424;-85
2021/07/08 18:45:27;;;;;;;1413.70;864.28;;;;;;;;;;5261998;27;20396;-85
2021/07/08 18:47:55;;;;;;;1248.82;854.35;;;;;;;;;;5241478;27;20038;-85
2021/07/08 18:50:26;;;;;;;1415.53;904.58;;;;;;;;;;5261802;27;20453;-85
2021/07/08 18:52:55;;;;;;;1293.18;850.00;;;;;;;;;;5251417;27;20029;-84
2021/07/08 18:55:24;;;;;;;1214.07;864.30;;;;;;;;;;5243337;27;20059;-85
2021/07/08 18:57:53;;;;;;;1577.45;931.38;;;;;;;;;;5250032;27;20498;-86
2021/07/08 19:00:22;;;;;;;1469.75;835.75;;;;;;;;;;5256275;27;20129;-84
2021/07/08 19:02:51;;;;;;;1288.93;848.38;;;;;;;;;;5245022;27;20045;-84
2021/07/08 19:05:20;;;;;;;1395.18;913.90;;;;;;;;;;5246950;27;20042;-86
2021/07/08 19:07:49;;;;;;;1163.43;857.55;;;;;;;;;;5247176;27;20029;-84
2021/07/08 19:10:33;;;;;;;1045.38;826.47;;;;;;;;;;5270024;27;20085;-84
2021/07/08 19:13:02;;;;;;;1242.28;885.42;;;;;;;;;;5269049;27;20065;-85
2021/07/08 19:15:31;;;;;;;990.12;809.47;;;;;;;;;;5256539;27;20017;-86
2021/07/08 19:18:04;;;;;;;1229.28;870.72;;;;;;;;;;5271092;27;20072;-84
2021/07/08 19:20:33;;;;;;;1097.70;838.40;;;;;;;;;;5273349;27;20018;-84
2021/07/08 19:23:03;;;;;;;1209.43;908.33;;;;;;;;;;5270055;27;20083;-84
2021/07/08 19:25:31;;;;;;;1466.60;938.55;;;;;;;;;;5274730;27;20079;-84
2021/07/08 19:28:00;;;;;;;1376.47;942.40;;;;;;;;;;5272022;27;20045;-85
2021/07/08 19:30:29;;;;;;;1677.47;971.65;;;;;;;;;;5269098;27;20025;-84
2021/07/08 19:32:57;;;;;;;1746.80;995.20;;;;;;;;;;5266867;27;20348;-84
2021/07/08 19:35:25;;;;;;;1684.40;974.70;;;;;;;;;;5273441;27;20014;-84
2021/07/08 19:37:55;;;;;;;1723.85;964.00;;;;;;;;;;5270273;27;20450;-84
2021/07/08 19:40:24;;;;;;;1842.68;989.00;;;;;;;;;;5270286;27;20344;-85
2021/07/08 19:42:53;;;;;;;1732.97;993.22;;;;;;;;;;5271993;27;20014;-84
2021/07/08 19:45:25;;;;;;;1722.53;999.90;;;;;;;;;;5269526;27;20343;-85
2021/07/08 19:47:54;;;;;;;1633.07;990.85;;;;;;;;;;5265521;27;20063;-85
2021/07/08 19:50:26;;;;;;;1521.25;979.85;;;;;;;;;;5271286;27;20036;-85